createdAt,value
2022-11-29T00:01:19.021Z,98820.41
2022-11-29T00:03:45.731Z,98819.59
2022-11-29T00:06:13.970Z,98813.09
2022-11-29T00:08:41.304Z,98815.50
2022-11-29T00:11:10.283Z,98813.41
2022-11-29T00:13:37.218Z,98815.31
2022-11-29T00:16:06.036Z,98815.00
2022-11-29T00:18:34.555Z,98807.22
2022-11-29T00:21:05.461Z,98804.22
2022-11-29T00:23:32.207Z,98805.00
2022-11-29T00:26:03.614Z,98805.81
2022-11-29T00:28:30.113Z,98807.72
2022-11-29T00:30:56.806Z,98812.31
2022-11-29T00:33:23.416Z,98811.50
2022-11-29T00:35:51.319Z,98810.41
2022-11-29T00:38:17.866Z,98811.72
2022-11-29T00:40:44.403Z,98808.72
2022-11-29T00:43:10.893Z,98810.31
2022-11-29T00:45:37.425Z,98802.72
2022-11-29T00:48:04.603Z,98802.41
2022-11-29T00:50:31.077Z,98805.63
2022-11-29T00:52:58.989Z,98804.53
2022-11-29T00:55:25.535Z,98805.91
2022-11-29T00:57:52.126Z,98804.81
2022-11-29T01:00:18.997Z,98807.22
2022-11-29T01:02:46.548Z,98812.63
2022-11-29T01:05:13.102Z,98805.31
2022-11-29T01:07:39.701Z,98813.41
2022-11-29T01:10:08.724Z,98813.41
2022-11-29T01:12:35.785Z,98804.22
2022-11-29T01:15:02.755Z,98805.03
2022-11-29T01:17:29.483Z,98807.44
2022-11-29T01:19:55.965Z,98814.72
2022-11-29T01:22:22.665Z,98817.09
2022-11-29T01:24:49.597Z,98823.63
2022-11-29T01:27:17.451Z,98819.78
2022-11-29T01:29:43.963Z,98821.41
2022-11-29T01:32:10.500Z,98820.28
2022-11-29T01:34:37.326Z,98819.19
2022-11-29T01:37:03.932Z,98830.00
2022-11-29T01:39:30.508Z,98825.41
2022-11-29T01:41:57.078Z,98829.19
2022-11-29T01:45:04.264Z,98828.09
2022-11-29T01:47:31.619Z,98828.41
2022-11-29T01:49:58.910Z,98840.00
2022-11-29T01:52:28.294Z,98837.28
2022-11-29T01:54:57.988Z,98828.09
2022-11-29T01:57:25.647Z,98827.81
2022-11-29T01:59:57.490Z,98828.09
2022-11-29T02:02:31.264Z,98832.41
2022-11-29T02:04:59.087Z,98832.41
2022-11-29T02:07:26.060Z,98825.41
2022-11-29T02:09:52.590Z,98836.69
2022-11-29T02:12:28.333Z,98839.41
2022-11-29T02:15:18.564Z,98836.69
2022-11-29T02:17:59.894Z,98839.09
2022-11-29T02:20:58.156Z,98837.22
2022-11-29T02:23:54.751Z,98844.19
2022-11-29T02:26:36.262Z,98846.88
2022-11-29T02:29:37.242Z,98833.38
2022-11-29T02:32:33.574Z,98826.59
2022-11-29T02:35:19.611Z,98835.50
2022-11-29T02:38:08.630Z,98831.97
2022-11-29T02:41:00.092Z,98834.69
2022-11-29T02:43:56.053Z,98831.69
2022-11-29T02:46:42.125Z,98835.19
2022-11-29T02:49:18.643Z,98829.78
2022-11-29T02:51:55.597Z,98827.91
2022-11-29T02:54:27.001Z,98828.69
2022-11-29T02:56:57.122Z,98831.41
2022-11-29T02:59:42.478Z,98836.78
2022-11-29T03:02:20.908Z,98836.78
2022-11-29T03:04:53.802Z,98841.91
2022-11-29T03:07:32.809Z,98838.41
2022-11-29T03:10:08.210Z,98843.78
2022-11-29T03:12:40.042Z,98846.50
2022-11-29T03:15:19.773Z,98846.50
2022-11-29T03:18:00.202Z,98848.09
2022-11-29T03:20:35.968Z,98850.78
2022-11-29T03:23:18.699Z,98851.59
2022-11-29T03:25:51.856Z,98861.25
2022-11-29T03:28:22.440Z,98863.19
2022-11-29T03:30:54.102Z,98864.47
2022-11-29T03:33:27.906Z,98859.38
2022-11-29T03:36:01.754Z,98865.91
2022-11-29T03:38:38.818Z,98874.75
2022-11-29T03:41:16.446Z,98868.88
2022-11-29T03:43:46.972Z,98870.50
2022-11-29T03:46:23.171Z,98865.09
2022-11-29T03:48:53.165Z,98867.00
2022-11-29T03:51:24.547Z,98868.59
2022-11-29T03:53:58.450Z,98874.00
2022-11-29T03:56:31.470Z,98871.28
2022-11-29T03:59:10.038Z,98881.28
2022-11-29T04:02:12.289Z,98868.88
2022-11-29T04:05:09.197Z,98870.50
2022-11-29T04:07:48.852Z,98874.28
2022-11-29T04:10:33.634Z,98869.69
2022-11-29T04:13:32.980Z,98865.09
2022-11-29T04:16:31.538Z,98870.16
2022-11-29T04:19:34.187Z,98877.47
2022-11-29T04:22:31.563Z,98887.97
2022-11-29T04:25:49.057Z,98889.56
2022-11-29T04:28:46.537Z,98883.06
2022-11-29T04:31:26.637Z,98894.66
2022-11-29T04:34:10.324Z,98886.56
2022-11-29T04:37:03.980Z,98897.88
2022-11-29T04:40:08.309Z,98895.47
2022-11-29T04:43:03.873Z,98899.78
2022-11-29T04:45:59.295Z,98905.69
2022-11-29T04:48:55.903Z,98902.97
2022-11-29T04:51:39.728Z,98904.06
2022-11-29T04:54:15.979Z,98909.19
2022-11-29T04:56:47.247Z,98911.09
2022-11-29T04:59:21.595Z,98910.28
2022-11-29T05:01:59.967Z,98906.47
2022-11-29T05:04:33.462Z,98919.97
2022-11-29T05:07:05.627Z,98919.19
2022-11-29T05:09:44.421Z,98924.88
2022-11-29T05:12:19.193Z,98921.88
2022-11-29T05:15:09.865Z,98928.06
2022-11-29T05:17:47.664Z,98927.28
2022-11-29T05:20:27.987Z,98929.19
2022-11-29T05:23:10.915Z,98928.38
2022-11-29T05:25:45.373Z,98937.28
2022-11-29T05:28:19.122Z,98941.06
2022-11-29T05:31:03.799Z,98929.47
2022-11-29T05:33:59.596Z,98935.16
2022-11-29T05:36:37.826Z,98934.38
2022-11-29T05:39:20.962Z,98937.06
2022-11-29T05:42:06.454Z,98939.75
2022-11-29T05:44:38.928Z,98939.47
2022-11-29T05:47:09.054Z,98947.56
2022-11-29T05:49:46.914Z,98945.16
2022-11-29T05:52:22.510Z,98950.84
2022-11-29T05:54:59.220Z,98960.56
2022-11-29T05:57:33.771Z,98961.06
2022-11-29T06:00:04.235Z,98960.25
2022-11-29T06:02:42.681Z,98961.88
2022-11-29T06:05:15.580Z,98971.06
2022-11-29T06:07:51.529Z,98966.75
2022-11-29T06:10:21.071Z,98971.06
2022-11-29T06:12:55.899Z,98980.75
2022-11-29T06:15:46.577Z,98978.34
2022-11-29T06:18:40.985Z,98985.06
2022-11-29T06:21:17.325Z,98979.16
2022-11-29T06:23:58.539Z,98983.47
2022-11-29T06:26:44.674Z,98991.56
2022-11-29T06:29:27.560Z,98995.06
2022-11-29T06:32:06.105Z,98983.47
2022-11-29T06:34:41.936Z,98993.66
2022-11-29T06:37:15.807Z,98996.97
2022-11-29T06:39:42.795Z,98998.06
2022-11-29T06:42:09.485Z,98990.75
2022-11-29T06:44:36.460Z,98995.34
2022-11-29T06:47:07.192Z,98995.66
2022-11-29T06:49:39.718Z,98995.66
2022-11-29T06:52:20.315Z,99001.84
2022-11-29T06:55:03.181Z,99002.66
2022-11-29T06:57:42.690Z,99000.75
2022-11-29T07:00:15.786Z,99001.84
2022-11-29T07:03:15.989Z,99011.25
2022-11-29T07:05:44.393Z,99012.34
2022-11-29T07:08:16.104Z,99013.97
2022-11-29T07:10:43.731Z,99012.34
2022-11-29T07:13:11.774Z,99022.88
2022-11-29T07:15:41.479Z,99023.34
2022-11-29T07:18:17.192Z,99029.53
2022-11-29T07:20:54.562Z,99031.16
2022-11-29T07:23:28.992Z,99030.84
2022-11-29T07:26:07.366Z,99032.16
2022-11-29T07:28:47.853Z,99029.75
2022-11-29T07:31:22.738Z,99035.38
2022-11-29T07:33:57.468Z,99035.38
2022-11-29T07:36:33.972Z,99032.69
2022-11-29T07:39:12.037Z,99038.56
2022-11-29T07:41:46.376Z,99038.88
2022-11-29T07:44:20.969Z,99042.88
2022-11-29T07:46:47.703Z,99041.47
2022-11-29T07:49:14.507Z,99047.38
2022-11-29T07:51:43.060Z,99047.38
2022-11-29T07:54:11.259Z,99051.09
2022-11-29T07:56:37.806Z,99057.28
2022-11-29T07:59:04.367Z,99058.09
2022-11-29T08:01:31.366Z,99060.50
2022-11-29T08:03:57.913Z,99058.59
2022-11-29T08:06:24.965Z,99062.41
2022-11-29T08:08:53.033Z,99066.41
2022-11-29T08:11:19.584Z,99071.00
2022-11-29T08:13:46.122Z,99067.50
2022-11-29T08:16:16.420Z,99073.72
2022-11-29T08:18:42.974Z,99066.91
2022-11-29T08:21:09.781Z,99069.28
2022-11-29T08:23:36.597Z,99068.53
2022-11-29T08:26:04.618Z,99077.63
2022-11-29T08:28:31.323Z,99076.50
2022-11-29T08:31:02.010Z,99074.63
2022-11-29T08:33:28.691Z,99080.53
2022-11-29T08:35:55.357Z,99080.81
2022-11-29T08:38:22.145Z,99080.81
2022-11-29T08:40:48.652Z,99080.31
2022-11-29T08:43:16.580Z,99082.22
2022-11-29T08:45:43.327Z,99084.63
2022-11-29T08:48:09.890Z,99081.34
2022-11-29T08:50:36.494Z,99086.41
2022-11-29T08:53:03.016Z,99089.91
2022-11-29T08:55:34.494Z,99095.94
2022-11-29T08:58:03.364Z,99094.84
2022-11-29T09:00:32.247Z,99098.34
2022-11-29T09:02:59.280Z,99104.56
2022-11-29T09:05:25.804Z,99108.34
2022-11-29T09:07:52.641Z,99103.75
2022-11-29T09:10:19.238Z,99107.25
2022-11-29T09:12:45.921Z,99112.03
2022-11-29T09:15:12.897Z,99109.84
2022-11-29T09:17:40.755Z,99117.66
2022-11-29T09:20:08.517Z,99120.38
2022-11-29T09:22:35.024Z,99124.97
2022-11-29T09:25:01.681Z,99124.66
2022-11-29T09:27:28.198Z,99137.09
2022-11-29T09:29:54.702Z,99132.47
2022-11-29T09:32:21.248Z,99143.59
2022-11-29T09:34:49.234Z,99132.47
2022-11-29T09:37:15.775Z,99139.16
2022-11-29T09:39:42.374Z,99141.88
2022-11-29T09:42:27.672Z,99145.59
2022-11-29T09:45:02.560Z,99149.91
2022-11-29T09:47:56.815Z,99151.69
2022-11-29T09:50:31.541Z,99144.94
2022-11-29T09:53:13.531Z,99142.63
2022-11-29T09:55:52.120Z,99148.03
2022-11-29T09:58:23.519Z,99144.13
2022-11-29T10:00:52.884Z,99145.66
2022-11-29T10:03:24.977Z,99142.94
2022-11-29T10:05:56.299Z,99149.06
2022-11-29T10:08:30.781Z,99148.47
2022-11-29T10:11:08.754Z,99152.94
2022-11-29T10:13:35.863Z,99149.94
2022-11-29T10:16:09.906Z,99151.25
2022-11-29T10:18:40.167Z,99151.25
2022-11-29T10:21:12.398Z,99157.78
2022-11-29T10:23:43.605Z,99153.47
2022-11-29T10:26:11.988Z,99162.38
2022-11-29T10:28:42.867Z,99161.78
2022-11-29T10:31:19.806Z,99159.88
2022-11-29T10:33:46.949Z,99156.56
2022-11-29T10:36:22.280Z,99159.47
2022-11-29T10:38:50.211Z,99158.66
2022-11-29T10:41:21.663Z,99156.97
2022-11-29T10:43:50.010Z,99160.50
2022-11-29T10:46:26.417Z,99159.34
2022-11-29T10:48:53.645Z,99161.97
2022-11-29T10:51:21.708Z,99156.75
2022-11-29T10:53:52.119Z,99164.78
2022-11-29T10:56:22.899Z,99160.84
2022-11-29T10:58:56.023Z,99164.28
2022-11-29T11:01:23.435Z,99163.94
2022-11-29T11:03:53.168Z,99159.53
2022-11-29T11:06:23.105Z,99162.25
2022-11-29T11:08:52.910Z,99161.66
2022-11-29T11:11:25.411Z,99159.13
2022-11-29T11:13:58.382Z,99156.63
2022-11-29T11:16:25.656Z,99159.19
2022-11-29T11:18:52.597Z,99166.50
2022-11-29T11:21:24.078Z,99167.81
2022-11-29T11:23:56.666Z,99165.25
2022-11-29T11:26:24.328Z,99170.94
2022-11-29T11:28:54.758Z,99172.06
2022-11-29T11:31:31.641Z,99169.34
2022-11-29T11:34:24.189Z,99171.84
2022-11-29T11:36:52.484Z,99177.25
2022-11-29T11:39:21.079Z,99180.47
2022-11-29T11:41:48.254Z,99182.28
2022-11-29T11:44:46.427Z,99185.47
2022-11-29T11:47:15.892Z,99186.59
2022-11-29T11:49:48.696Z,99183.09
2022-11-29T11:52:21.876Z,99197.09
2022-11-29T11:54:53.587Z,99192.00
2022-11-29T11:57:21.682Z,99196.00
2022-11-29T11:59:49.289Z,99190.56
2022-11-29T12:02:25.998Z,99185.66
2022-11-29T12:04:54.942Z,99197.72
2022-11-29T12:08:05.694Z,99192.59
2022-11-29T12:10:22.596Z,99195.09
2022-11-29T12:12:50.225Z,99195.41
2022-11-29T12:15:20.324Z,99200.34
2022-11-29T12:17:49.846Z,99199.25
2022-11-29T12:20:25.889Z,99196.81
2022-11-29T12:23:09.038Z,99206.56
2022-11-29T12:25:46.448Z,99210.84
2022-11-29T12:28:20.361Z,99205.75
2022-11-29T12:30:58.021Z,99211.63
2022-11-29T12:33:35.145Z,99209.25
2022-11-29T12:36:19.186Z,99206.22
2022-11-29T12:39:07.746Z,99216.47
2022-11-29T12:41:43.738Z,99217.47
2022-11-29T12:44:24.686Z,99213.66
2022-11-29T12:47:28.176Z,99220.66
2022-11-29T12:50:00.862Z,99223.88
2022-11-29T12:52:36.277Z,99213.53
2022-11-29T12:55:17.210Z,99223.44
2022-11-29T12:57:53.447Z,99221.75
2022-11-29T13:00:20.835Z,99213.81
2022-11-29T13:03:00.363Z,99225.34
2022-11-29T13:05:41.172Z,99222.34
2022-11-29T13:08:24.911Z,99224.53
2022-11-29T13:11:06.511Z,99220.13
2022-11-29T13:13:39.294Z,99231.94
2022-11-29T13:16:20.539Z,99233.66
2022-11-29T13:18:53.773Z,99238.56
2022-11-29T13:21:27.795Z,99231.94
2022-11-29T13:24:10.539Z,99239.09
2022-11-29T13:26:39.943Z,99234.66
2022-11-29T13:29:12.529Z,99233.53
2022-11-29T13:31:39.667Z,99238.97
2022-11-29T13:34:12.440Z,99233.75
2022-11-29T13:36:47.538Z,99233.91
2022-11-29T13:39:28.149Z,99231.84
2022-11-29T13:42:03.587Z,99232.66
2022-11-29T13:44:38.620Z,99235.16
2022-11-29T13:47:08.613Z,99237.06
2022-11-29T13:49:56.244Z,99240.34
2022-11-29T13:52:34.802Z,99236.84
2022-11-29T13:55:17.776Z,99239.75
2022-11-29T13:58:19.413Z,99232.44
2022-11-29T14:00:50.631Z,99238.66
2022-11-29T14:03:30.197Z,99236.75
2022-11-29T14:06:15.864Z,99237.34
2022-11-29T14:09:19.593Z,99233.84
2022-11-29T14:11:49.286Z,99238.34
2022-11-29T14:14:25.589Z,99239.97
2022-11-29T14:16:55.410Z,99236.53
2022-11-29T14:19:27.657Z,99249.59
2022-11-29T14:22:20.155Z,99246.09
2022-11-29T14:25:35.015Z,99244.78
2022-11-29T14:28:01.078Z,99249.72
2022-11-29T14:30:47.387Z,99239.97
2022-11-29T14:33:42.299Z,99236.47
2022-11-29T14:36:41.438Z,99231.56
2022-11-29T14:39:27.314Z,99249.19
2022-11-29T14:42:03.480Z,99245.50
2022-11-29T14:44:32.369Z,99240.19
2022-11-29T14:47:04.162Z,99244.63
2022-11-29T14:49:39.611Z,99247.63
2022-11-29T14:52:24.809Z,99247.72
2022-11-29T14:54:56.168Z,99246.13
2022-11-29T14:58:02.634Z,99241.31
2022-11-29T15:00:34.680Z,99251.94
2022-11-29T15:03:09.668Z,99254.94
2022-11-29T15:05:40.003Z,99263.69
2022-11-29T15:08:11.956Z,99265.06
2022-11-29T15:10:42.872Z,99270.28
2022-11-29T15:13:12.752Z,99269.78
2022-11-29T15:15:58.394Z,99276.31
2022-11-29T15:18:49.438Z,99275.50
2022-11-29T15:21:29.604Z,99279.00
2022-11-29T15:23:59.045Z,99280.13
2022-11-29T15:26:25.681Z,99274.19
2022-11-29T15:28:52.174Z,99285.31
2022-11-29T15:31:20.772Z,99280.53
2022-11-29T15:33:49.233Z,99281.63
2022-11-29T15:36:18.889Z,99288.41
2022-11-29T15:38:47.556Z,99287.91
2022-11-29T15:41:22.501Z,99299.81
2022-11-29T15:43:52.146Z,99295.50
2022-11-29T15:46:19.795Z,99305.53
2022-11-29T15:48:46.437Z,99302.06
2022-11-29T15:51:24.464Z,99306.66
2022-11-29T15:54:11.308Z,99312.38
2022-11-29T15:56:45.178Z,99303.44
2022-11-29T15:59:19.918Z,99311.84
2022-11-29T16:01:50.173Z,99313.25
2022-11-29T16:04:20.090Z,99312.44
2022-11-29T16:06:49.264Z,99309.72
2022-11-29T16:09:19.718Z,99314.66
2022-11-29T16:11:48.115Z,99309.53
2022-11-29T16:14:21.955Z,99317.66
2022-11-29T16:16:51.152Z,99324.97
2022-11-29T16:19:25.878Z,99321.75
2022-11-29T16:22:02.708Z,99313.63
2022-11-29T16:24:29.483Z,99323.66
2022-11-29T16:26:56.340Z,99317.16
2022-11-29T16:29:28.645Z,99320.94
2022-11-29T16:31:55.691Z,99325.56
2022-11-29T16:34:27.238Z,99335.28
2022-11-29T16:37:03.077Z,99329.34
2022-11-29T16:39:30.505Z,99342.06
2022-11-29T16:42:13.586Z,99340.16
2022-11-29T16:45:05.436Z,99336.66
2022-11-29T16:47:45.414Z,99337.75
2022-11-29T16:50:18.013Z,99336.94
2022-11-29T16:52:46.457Z,99343.50
2022-11-29T16:55:14.353Z,99340.78
2022-11-29T16:57:41.142Z,99348.09
2022-11-29T17:00:23.882Z,99340.78
2022-11-29T17:02:50.679Z,99339.97
2022-11-29T17:05:17.409Z,99347.28
2022-11-29T17:07:44.213Z,99355.69
2022-11-29T17:10:16.682Z,99351.91
2022-11-29T17:12:47.812Z,99349.47
2022-11-29T17:15:15.128Z,99354.88
2022-11-29T17:17:41.989Z,99350.56
2022-11-29T17:20:10.824Z,99350.88
2022-11-29T17:22:37.631Z,99358.16
2022-11-29T17:25:04.798Z,99360.88
2022-11-29T17:27:32.692Z,99364.38
2022-11-29T17:29:59.211Z,99363.06
2022-11-29T17:32:26.961Z,99373.06
2022-11-29T17:34:53.831Z,99368.78
2022-11-29T17:37:20.468Z,99375.00
2022-11-29T17:39:47.186Z,99370.69
2022-11-29T17:42:13.880Z,99373.41
2022-11-29T17:44:41.848Z,99377.19
2022-11-29T17:47:08.397Z,99372.88
2022-11-29T17:49:34.972Z,99374.78
2022-11-29T17:52:01.631Z,99375.88
2022-11-29T17:54:28.221Z,99379.66
2022-11-29T17:56:55.116Z,99376.16
2022-11-29T17:59:21.646Z,99379.66
2022-11-29T18:01:49.642Z,99379.66
2022-11-29T18:04:16.253Z,99387.78
2022-11-29T18:06:42.944Z,99380.75
2022-11-29T18:09:11.191Z,99384.28
2022-11-29T18:11:47.070Z,99387.28
2022-11-29T18:14:16.067Z,99383.75
2022-11-29T18:16:42.865Z,99385.66
2022-11-29T18:19:12.148Z,99384.06
2022-11-29T18:21:39.440Z,99394.09
2022-11-29T18:24:06.962Z,99393.28
2022-11-29T18:26:34.959Z,99387.88
2022-11-29T18:29:02.206Z,99398.69
2022-11-29T18:31:30.419Z,99401.41
2022-11-29T18:33:59.007Z,99400.59
2022-11-29T18:36:29.304Z,99398.69
2022-11-29T18:38:57.646Z,99398.69
2022-11-29T18:41:24.862Z,99395.19
2022-11-29T18:43:56.594Z,99398.19
2022-11-29T18:46:23.327Z,99406.28
2022-11-29T18:48:50.031Z,99408.69
2022-11-29T18:51:18.531Z,99405.19
2022-11-29T18:53:46.944Z,99393.88
2022-11-29T18:56:15.366Z,99409.00
2022-11-29T18:58:42.659Z,99400.06
2022-11-29T19:01:10.910Z,99398.19
2022-11-29T19:03:39.209Z,99407.09
2022-11-29T19:06:07.608Z,99407.09
2022-11-29T19:08:34.663Z,99402.50
2022-11-29T19:11:05.582Z,99400.59
2022-11-29T19:13:32.336Z,99406.81
2022-11-29T19:15:58.936Z,99400.59
2022-11-29T19:18:25.627Z,99399.78
2022-11-29T19:20:52.227Z,99399.78
2022-11-29T19:23:19.227Z,99406.28
2022-11-29T19:25:46.036Z,99405.19
2022-11-29T19:28:14.551Z,99400.88
2022-11-29T19:30:41.373Z,99404.09
2022-11-29T19:33:08.072Z,99413.31
2022-11-29T19:35:35.041Z,99417.63
2022-11-29T19:38:01.658Z,99409.78
2022-11-29T19:40:28.240Z,99406.00
2022-11-29T19:42:57.652Z,99407.38
2022-11-29T19:45:25.550Z,99407.38
2022-11-29T19:47:52.147Z,99411.16
2022-11-29T19:50:18.676Z,99410.38
2022-11-29T19:52:45.226Z,99415.50
2022-11-29T19:55:11.861Z,99415.50
2022-11-29T19:57:38.499Z,99422.78
2022-11-29T20:00:06.430Z,99420.38
2022-11-29T20:02:34.644Z,99420.38
2022-11-29T20:05:01.306Z,99427.41
2022-11-29T20:07:28.124Z,99428.19
2022-11-29T20:09:54.922Z,99433.59
2022-11-29T20:12:21.523Z,99437.41
2022-11-29T20:14:48.257Z,99430.09
2022-11-29T20:17:14.812Z,99429.28
2022-11-29T20:19:42.769Z,99432.81
2022-11-29T20:22:09.293Z,99435.78
2022-11-29T20:24:41.281Z,99432.28
2022-11-29T20:27:11.636Z,99442.00
2022-11-29T20:29:38.232Z,99441.19
2022-11-29T20:32:05.368Z,99445.81
2022-11-29T20:34:32.295Z,99449.31
2022-11-29T20:37:22.880Z,99446.59
2022-11-29T20:39:54.582Z,99449.03
2022-11-29T20:43:06.186Z,99447.69
2022-11-29T20:45:33.399Z,99446.91
2022-11-29T20:48:04.411Z,99448.81
2022-11-29T20:50:32.466Z,99445.31
2022-11-29T20:53:10.735Z,99448.81
2022-11-29T20:55:37.354Z,99451.53
2022-11-29T20:58:03.909Z,99456.13
2022-11-29T21:00:30.438Z,99458.84
2022-11-29T21:02:56.983Z,99457.22
2022-11-29T21:05:23.623Z,99451.53
2022-11-29T21:07:50.400Z,99450.41
2022-11-29T21:10:18.653Z,99461.22
2022-11-29T21:12:45.983Z,99455.00
2022-11-29T21:15:13.897Z,99462.03
2022-11-29T21:17:41.388Z,99453.91
2022-11-29T21:20:16.053Z,99457.41
2022-11-29T21:22:52.501Z,99448.22
2022-11-29T21:25:29.064Z,99463.63
2022-11-29T21:27:57.276Z,99454.44
2022-11-29T21:30:24.925Z,99457.13
2022-11-29T21:32:52.221Z,99461.44
2022-11-29T21:35:18.814Z,99455.22
2022-11-29T21:37:45.838Z,99454.72
2022-11-29T21:40:14.369Z,99462.03
2022-11-29T21:42:42.422Z,99458.50
2022-11-29T21:45:15.293Z,99458.84
2022-11-29T21:47:42.923Z,99467.44
2022-11-29T21:50:11.011Z,99463.91
2022-11-29T21:52:37.685Z,99469.31
2022-11-29T21:55:05.745Z,99468.53
2022-11-29T21:57:32.263Z,99468.53
2022-11-29T22:00:00.333Z,99457.72
2022-11-29T22:02:26.944Z,99462.34
2022-11-29T22:04:53.555Z,99455.81
2022-11-29T22:07:20.186Z,99449.59
2022-11-29T22:09:46.849Z,99446.91
2022-11-29T22:12:33.092Z,99457.41
2022-11-29T22:15:01.362Z,99462.53
2022-11-29T22:17:27.909Z,99461.72
2022-11-29T22:19:54.479Z,99464.44
2022-11-29T22:22:21.071Z,99462.53
2022-11-29T22:24:48.003Z,99464.44
2022-11-29T22:27:14.719Z,99455.22
2022-11-29T22:29:41.269Z,99460.63
2022-11-29T22:32:09.173Z,99460.63
2022-11-29T22:34:35.745Z,99456.84
2022-11-29T22:37:02.423Z,99457.13
2022-11-29T22:39:28.955Z,99462.53
2022-11-29T22:41:55.528Z,99459.31
2022-11-29T22:44:22.218Z,99458.22
2022-11-29T22:46:48.958Z,99460.94
2022-11-29T22:49:16.943Z,99463.63
2022-11-29T22:51:43.553Z,99464.44
2022-11-29T22:54:11.129Z,99465.25
2022-11-29T22:56:39.367Z,99473.06
2022-11-29T22:59:06.460Z,99469.56
2022-11-29T23:01:35.445Z,99471.16
2022-11-29T23:04:04.145Z,99464.44
2022-11-29T23:06:34.145Z,99464.72
2022-11-29T23:09:05.381Z,99474.44
2022-11-29T23:11:31.920Z,99470.13
2022-11-29T23:13:58.631Z,99482.03
2022-11-29T23:16:27.596Z,99469.31
2022-11-29T23:18:55.632Z,99476.63
2022-11-29T23:21:24.169Z,99480.13
2022-11-29T23:23:56.421Z,99480.94
2022-11-29T23:26:25.771Z,99476.63
2022-11-29T23:28:53.275Z,99475.53
2022-11-29T23:31:20.812Z,99478.25
2022-11-29T23:33:47.613Z,99483.66
2022-11-29T23:36:15.099Z,99474.72
2022-11-29T23:38:42.146Z,99475.25
2022-11-29T23:41:10.650Z,99479.84
2022-11-29T23:43:38.259Z,99471.75
2022-11-29T23:46:09.358Z,99475.25
2022-11-29T23:48:36.077Z,99476.88
2022-11-29T23:51:02.664Z,99472.03
2022-11-29T23:53:29.217Z,99479.84
2022-11-29T23:55:57.002Z,99475.25
2022-11-29T23:58:25.236Z,99469.31
